New Philadelphia, OH

10:25 AM EST on March 02, 2015 (GMT -0500)
Wayne County | Change Station
CLOSE
Current Station
Airport
Location: Wooster,
Elevation: 1135 ft
Nearby Weather Stations

Elev 1135 ft 40.87 °N, 81.89 °W | Updated 29 minutes ago

Overcast
Overcast
20 °F
Feels Like 8 °F
N
12
Wind Variable Wind from WNW

Today
High -- | Low -- °F
--% Chance of Precip.
Yesterday
High -- | Low -- °F
Precip. -- in
6:58 AM 6:18 PM
Waxing Gibbous, 91% visible
Pressure 30.48 in
Visibility 6.0 miles
Clouds Clear
Windchill 8 °F
Dew Point 14 °F
Humidity 78%
Rainfall 0.00 in
Snow Depth Not available.
UV 3 out of 12
Pollen .50 out of 12
Air Quality Not available.
Flu Activity Not available.
METAR KBJJ 021456Z AUTO 29010KT 6SM HZ CLR M07/M10 A3043 RMK AO2 SLP322 T10671100 51023 TSNO

More Conditions Fewer Conditions

Pressure 30.48 in
Visibility 6.0 miles
Clouds Clear
Windchill 8 °F
Dew Point 14 °F
Humidity 78%
Rainfall 0.00 in
Snow Depth Not available.
UV 3 out of 12
Pollen .50 out of 12
Air Quality Not available.
Flu Activity Not available.
METAR KBJJ 021456Z AUTO 29010KT 6SM HZ CLR M07/M10 A3043 RMK AO2 SLP322 T10671100 51023 TSNO

More Conditions Fewer Conditions

10-Day Weather Forecast

Almanac

Astronomy

Mar. 02, 2015 Rise Set
Actual Time
Civil Twilight
Nautical Twilight
Astronomical Twilight
Moon
Length of Visible Light
Length of Day
Tomorrow will be .
, % of the Moon is Illuminated

Today's Extremes

State Highs State Lows

Community

WunderPhotos

Upload Photos

1,801,811 photos uploaded!

WunderBlogs® & News

Nearby

Air Quality

  Air Quality AQ Index Pollutant
Not available.

Snow Depth

Station Depth Elevation

Earthquake Activity

City Distance Mag. Time & Date
Minimum magnitude displayed is 2.5.

Coastal Water Temperatures

Place Temperature

Nearby Weather Stations